Time;durP1;ratioP1;P1;durP2;ratioP2;P2;SDS_P1;SDS_P2;PMS_P1;PMS_P2;Temp;Humidity;BMP_temperature;BMP_pressure;BME280_temperature;BME280_humidity;BME280_pressure;Samples;Min_cycle;Max_cycle;Signal;HPM_P1;HPM_P2
2022/01/10 00:00:20;;;;;;;16.17;8.83;;;;;;;9.19;62.52;93595.84;5030833;28;20457;-62
2022/01/10 00:03:55;;;;;;;;;;;;;;;;;;;;;
2022/01/10 00:06:29;;;;;;;17.80;8.33;;;;;;;9.22;63.12;93589.28;5030723;28;20451;-62
2022/01/10 00:08:57;;;;;;;17.83;8.05;;;;;;;9.02;63.01;93595.50;5030099;28;20444;-63
2022/01/10 00:11:27;;;;;;;14.33;7.53;;;;;;;9.14;63.10;93598.50;5030683;28;20205;-64
2022/01/10 00:14:02;;;;;;;14.30;7.43;;;;;;;9.09;62.90;93606.41;5030163;28;20479;-64
2022/01/10 00:16:35;;;;;;;11.73;6.30;;;;;;;9.42;61.95;93598.72;5030290;28;20966;-64
2022/01/10 00:19:06;;;;;;;13.57;6.57;;;;;;;9.44;62.26;93588.75;5030297;28;20481;-64
2022/01/10 00:21:43;;;;;;;13.17;7.03;;;;;;;9.75;61.11;93592.56;5030373;28;20525;-63
2022/01/10 00:24:26;;;;;;;13.80;6.68;;;;;;;9.59;61.60;93593.81;5030450;28;20459;-63
2022/01/10 00:26:54;;;;;;;15.23;7.27;;;;;;;9.61;61.79;93596.94;5030460;28;20225;-63
2022/01/10 00:29:22;;;;;;;16.60;6.73;;;;;;;9.62;61.60;93596.66;5029863;28;20431;-65
2022/01/10 00:31:58;;;;;;;11.17;6.43;;;;;;;9.59;61.59;93599.06;5029278;28;20440;-64
2022/01/10 00:34:56;;;;;;;10.67;6.10;;;;;;;9.39;62.71;93596.66;5029766;28;20462;-64
2022/01/10 00:37:35;;;;;;;10.50;5.77;;;;;;;9.49;62.15;93599.19;5029134;28;20566;-64
2022/01/10 00:43:04;;;;;;;13.07;6.33;;;;;;;9.49;62.10;93599.19;5028372;28;20481;-65
2022/01/10 00:45:34;;;;;;;14.52;6.88;;;;;;;9.50;62.49;93590.28;5028333;28;20447;-64
2022/01/10 00:51:54;;;;;;;11.47;5.97;;;;;;;9.08;63.43;93583.94;5047442;28;20910;-63
2022/01/10 00:55:11;;;;;;;11.80;6.60;;;;;;;8.98;63.49;93584.03;4988008;28;20445;-64
2022/01/10 00:58:06;;;;;;;14.37;6.87;;;;;;;8.83;63.92;93570.38;5004850;28;20482;-62
2022/01/10 01:01:04;;;;;;;14.83;7.10;;;;;;;9.03;63.37;93591.06;5029679;28;20473;-63
2022/01/10 01:03:37;;;;;;;12.47;6.53;;;;;;;8.93;63.72;93594.53;5047366;28;21015;-64
2022/01/10 01:06:12;;;;;;;12.87;6.73;;;;;;;8.78;65.09;93594.69;5029876;28;20527;-63
2022/01/10 01:08:59;;;;;;;12.27;6.93;;;;;;;8.63;65.59;93586.97;5046612;28;20542;-63
2022/01/10 01:12:43;;;;;;;12.32;7.05;;;;;;;8.58;65.78;93584.41;5045053;28;20494;-63
2022/01/10 01:24:50;;;;;;;14.23;7.83;;;;;;;8.36;67.17;93578.84;5028985;28;20470;-63
2022/01/10 01:30:50;;;;;;;12.97;7.30;;;;;;;7.88;68.39;93574.47;5028963;28;20448;-64
2022/01/10 01:33:23;;;;;;;11.47;7.40;;;;;;;8.14;68.19;93581.06;5029087;28;20440;-63
2022/01/10 01:36:38;;;;;;;13.23;7.87;;;;;;;8.26;67.42;93573.72;5028620;28;20436;-64
2022/01/10 01:39:28;;;;;;;10.60;6.80;;;;;;;8.27;67.48;93567.44;5006879;28;20519;-64
2022/01/10 01:42:06;;;;;;;11.47;7.13;;;;;;;8.75;66.66;93573.56;5028113;28;20848;-64
2022/01/10 01:44:38;;;;;;;8.03;5.97;;;;;;;8.70;65.82;93560.56;5030167;28;20446;-64
2022/01/10 01:47:34;;;;;;;10.47;5.97;;;;;;;8.37;66.24;93528.22;5029403;28;20475;-64
2022/01/10 01:50:07;;;;;;;10.93;6.20;;;;;;;8.57;67.08;93562.00;5032097;28;20502;-66
2022/01/10 01:53:37;;;;;;;;;;;;;;;;;;;;;
2022/01/10 01:57:06;;;;;;;9.23;5.93;;;;;;;8.74;66.43;93556.34;5033545;28;20454;-63
2022/01/10 01:59:39;;;;;;;8.63;5.38;;;;;;;8.72;66.04;93551.38;5031706;28;20546;-68
2022/01/10 02:02:10;;;;;;;8.73;5.53;;;;;;;8.77;66.51;93556.56;5031825;28;20592;-64
2022/01/10 02:04:38;;;;;;;7.43;5.13;;;;;;;8.81;66.15;93552.34;5031315;28;20439;-62
2022/01/10 02:08:36;;;;;;;6.67;5.27;;;;;;;8.70;66.36;93556.13;5031734;28;20432;-62
2022/01/10 02:12:03;;;;;;;7.50;5.10;;;;;;;8.98;66.24;93552.69;5030851;28;20455;-64
2022/01/10 02:14:46;;;;;;;8.40;5.03;;;;;;;9.03;65.39;93557.84;5032591;28;20467;-63
2022/01/10 02:20:57;;;;;;;7.47;5.20;;;;;;;8.76;66.30;93549.78;4989141;28;20440;-64
2022/01/10 02:24:24;;;;;;;8.03;5.40;;;;;;;8.79;66.69;93554.47;5027937;28;20834;-62
2022/01/10 02:27:50;;;;;;;;;;;;;;;;;;;;;
2022/01/10 02:29:55;;;;;;;10.50;5.90;;;;;;;9.15;65.65;93555.66;5011934;28;20440;-63
2022/01/10 02:32:41;;;;;;;9.70;6.40;;;;;;;9.54;64.50;93549.44;5028126;28;20456;-63
2022/01/10 02:36:00;;;;;;;12.53;7.30;;;;;;;9.45;64.27;93557.09;5011560;28;20463;-64
2022/01/10 02:39:20;;;;;;;10.80;7.77;;;;;;;8.95;66.09;93553.25;5000192;28;20542;-64
2022/01/10 02:42:24;;;;;;;11.37;7.20;;;;;;;9.13;64.75;93565.59;5027942;28;20536;-65
2022/01/10 02:45:03;;;;;;;11.73;7.67;;;;;;;8.65;67.31;93568.44;5021856;28;20811;-64
2022/01/10 02:47:43;;;;;;;12.67;9.07;;;;;;;8.67;66.35;93567.09;5012480;28;20440;-63
2022/01/10 02:50:26;;;;;;;13.10;8.40;;;;;;;8.57;66.95;93562.00;5027855;28;20541;-66
2022/01/10 02:53:21;;;;;;;13.93;7.90;;;;;;;8.56;66.79;93560.41;5007922;28;20448;-63
2022/01/10 02:55:51;;;;;;;10.93;7.70;;;;;;;8.42;67.04;93559.50;5025345;28;20484;-63
2022/01/10 02:58:20;;;;;;;10.37;7.00;;;;;;;8.68;66.70;93558.22;5027049;28;20546;-65
2022/01/10 03:00:53;;;;;;;10.13;6.70;;;;;;;8.53;66.89;93563.59;5012688;28;20543;-63
2022/01/10 03:03:40;;;;;;;9.07;6.50;;;;;;;8.37;67.68;93566.59;5010895;28;20597;-63
2022/01/10 03:06:11;;;;;;;8.73;6.50;;;;;;;8.08;68.29;93566.53;5012480;28;20978;-64
2022/01/10 03:16:06;;;;;;;9.70;6.80;;;;;;;8.37;67.57;93556.16;5016514;28;20536;-62
2022/01/10 03:18:49;;;;;;;10.20;6.43;;;;;;;8.54;66.92;93570.34;5009841;28;20492;-64
2022/01/10 03:25:00;;;;;;;12.73;7.50;;;;;;;8.50;66.95;93566.75;5028750;28;20207;-64
2022/01/10 03:27:55;;;;;;;10.83;7.23;;;;;;;8.60;67.35;93560.63;5028237;28;20438;-62
2022/01/10 03:31:19;;;;;;;10.97;7.10;;;;;;;8.61;66.65;93564.81;5028482;28;20548;-62
2022/01/10 03:35:29;;;;;;;10.90;7.43;;;;;;;8.28;67.49;93563.00;5017407;28;20605;-66
2022/01/10 03:38:02;;;;;;;11.37;7.17;;;;;;;8.18;68.31;93563.84;4986710;28;20939;-64
2022/01/10 03:48:39;;;;;;;10.13;6.83;;;;;;;8.52;67.17;93559.41;4950507;28;20207;-64
2022/01/10 03:51:28;;;;;;;10.60;7.50;;;;;;;8.55;65.81;93574.53;4950118;29;20546;-64
2022/01/10 03:54:40;;;;;;;10.75;7.10;;;;;;;8.83;65.09;93573.72;4910595;29;20649;-64
2022/01/10 04:05:50;;;;;;;10.10;6.90;;;;;;;8.72;65.53;93590.53;5006029;28;20817;-63
2022/01/10 04:08:59;;;;;;;9.32;6.43;;;;;;;8.70;65.72;93589.28;5008711;28;20978;-62
2022/01/10 04:11:58;;;;;;;7.45;5.00;;;;;;;7.49;67.39;93597.09;5025909;28;20197;-64
2022/01/10 04:14:46;;;;;;;6.87;5.00;;;;;;;7.71;68.18;93594.91;5009559;28;20226;-63
2022/01/10 04:17:43;;;;;;;6.65;4.45;;;;;;;7.81;68.02;93603.44;5027306;28;20455;-64
2022/01/10 04:21:00;;;;;;;;;;;;;;;;;;;;;
2022/01/10 04:24:00;;;;;;;6.68;4.43;;;;;;;8.21;67.37;93597.97;5025620;28;20452;-63
2022/01/10 04:31:10;;;;;;;7.97;4.93;;;;;;;8.11;67.07;93610.31;5001177;28;20524;-64
2022/01/10 04:34:27;;;;;;;6.53;4.35;;;;;;;8.04;66.65;93613.25;4950056;28;20355;-63
2022/01/10 04:41:50;;;;;;;7.85;5.50;;;;;;;7.84;67.90;93620.38;5010608;28;20205;-63
2022/01/10 04:44:34;;;;;;;6.60;4.43;;;;;;;8.15;66.40;93629.59;5008644;28;20198;-63
2022/01/10 04:54:52;;;;;;;7.70;5.30;;;;;;;7.89;67.52;93633.41;5012338;28;20202;-65
2022/01/10 04:58:23;;;;;;;6.63;4.85;;;;;;;8.03;67.06;93634.34;5008446;28;20209;-63
2022/01/10 05:02:48;;;;;;;;;;;;;;;;;;;;;
2022/01/10 05:05:53;;;;;;;6.78;5.03;;;;;;;8.56;64.73;93638.72;4983478;28;20216;-63
2022/01/10 05:08:34;;;;;;;7.72;5.22;;;;;;;8.60;64.90;93633.75;5037545;28;20281;-63
2022/01/10 05:12:10;;;;;;;7.75;5.63;;;;;;;8.71;64.23;93633.41;5010122;28;20213;-62
2022/01/10 05:14:47;;;;;;;10.18;5.55;;;;;;;8.79;64.36;93638.03;5007729;28;20261;-61
2022/01/10 05:17:38;;;;;;;9.30;6.22;;;;;;;8.75;64.46;93636.22;5008110;28;20699;-62
2022/01/10 05:20:20;;;;;;;8.90;6.68;;;;;;;8.64;64.41;93642.59;5041085;28;20236;-61
2022/01/10 05:23:12;;;;;;;12.48;6.68;;;;;;;8.75;64.74;93642.25;5009850;28;20224;-61
2022/01/10 05:25:54;;;;;;;11.02;6.93;;;;;;;8.74;64.29;93645.13;5024681;28;20654;-61
2022/01/10 05:29:10;;;;;;;11.05;6.85;;;;;;;8.38;65.12;93647.22;5007732;28;20210;-63
2022/01/10 05:31:41;;;;;;;61.87;11.27;;;;;;;8.12;66.48;93653.59;5006501;28;20201;-61
2022/01/10 05:35:10;;;;;;;15.82;7.40;;;;;;;8.51;65.51;93661.47;5009744;28;20459;-62
2022/01/10 05:41:17;;;;;;;9.88;7.15;;;;;;;8.18;66.09;93668.97;4991690;28;20692;-69
2022/01/10 05:43:45;;;;;;;44.10;32.10;;;;;;;8.15;66.74;93663.53;5008201;28;20209;-61
2022/01/10 05:46:21;;;;;;;88.67;61.43;;;;;;;8.24;66.71;93667.16;5008155;28;20580;-61
2022/01/10 05:49:12;;;;;;;33.13;22.27;;;;;;;8.35;68.28;93665.25;5024090;28;20903;-69
2022/01/10 05:51:43;;;;;;;11.17;7.60;;;;;;;8.23;65.94;93660.31;5000771;28;20452;-61
2022/01/10 05:54:43;;;;;;;9.77;7.87;;;;;;;8.13;65.97;93655.19;4970287;28;21104;-64
2022/01/10 05:57:14;;;;;;;111.80;78.35;;;;;;;8.56;66.04;93679.75;4984713;28;20466;-62
2022/01/10 05:59:57;;;;;;;51.67;36.78;;;;;;;8.53;65.95;93675.84;4984796;28;20241;-63
2022/01/10 06:02:32;;;;;;;15.88;11.48;;;;;;;8.20;66.79;93672.09;4970587;28;20637;-63
2022/01/10 06:05:19;;;;;;;10.47;7.47;;;;;;;8.25;66.65;93679.13;5001889;28;20698;-62
2022/01/10 06:07:55;;;;;;;12.23;7.10;;;;;;;8.04;66.33;93688.09;4984513;28;20852;-62
2022/01/10 06:10:32;;;;;;;10.65;7.75;;;;;;;7.93;67.28;93671.72;4985097;28;20209;-62
2022/01/10 06:13:20;;;;;;;11.70;7.68;;;;;;;7.90;67.32;93687.13;4969854;28;20534;-62
2022/01/10 06:16:21;;;;;;;11.20;7.53;;;;;;;7.74;68.48;93683.78;4969800;28;20269;-63
2022/01/10 06:18:51;;;;;;;11.60;7.05;;;;;;;7.92;67.66;93669.34;5000900;28;20237;-63
2022/01/10 06:21:55;;;;;;;11.35;7.97;;;;;;;7.91;67.19;93699.09;4985195;28;20230;-63
2022/01/10 06:24:32;;;;;;;11.57;7.50;;;;;;;8.21;66.81;93688.53;5010632;28;20345;-62
2022/01/10 06:27:25;;;;;;;16.42;7.85;;;;;;;8.18;66.04;93694.28;5024084;28;20204;-63
2022/01/10 06:30:06;;;;;;;11.05;7.57;;;;;;;8.30;65.70;93692.16;5025133;28;20681;-61
2022/01/10 06:32:44;;;;;;;9.63;7.30;;;;;;;8.36;65.54;93701.50;5027714;28;20808;-66
2022/01/10 06:35:29;;;;;;;10.50;7.07;;;;;;;7.74;66.46;93696.03;5026842;28;20275;-61
2022/01/10 06:37:57;;;;;;;10.80;8.10;;;;;;;7.68;67.08;93699.72;5027091;28;20268;-59
2022/01/10 06:40:24;;;;;;;12.90;8.38;;;;;;;7.69;67.10;93706.50;5027438;28;20197;-61
2022/01/10 06:42:51;;;;;;;16.58;9.32;;;;;;;7.46;68.44;93707.09;5027256;28;20218;-61
2022/01/10 06:45:22;;;;;;;12.95;8.60;;;;;;;7.66;67.64;93714.84;5011079;28;20255;-61
2022/01/10 06:47:49;;;;;;;14.55;9.27;;;;;;;7.46;67.92;93713.09;5011463;28;20204;-61
2022/01/10 06:50:16;;;;;;;17.73;9.85;;;;;;;7.72;67.18;93700.75;5011068;28;20242;-61
2022/01/10 06:52:45;;;;;;;15.90;9.75;;;;;;;7.69;67.53;93696.84;5026784;28;20201;-61
2022/01/10 06:55:12;;;;;;;14.85;9.20;;;;;;;7.69;67.83;93690.84;5010851;28;20598;-61
2022/01/10 06:57:41;;;;;;;16.65;9.80;;;;;;;7.60;67.11;93710.69;5026350;28;20264;-60
2022/01/10 07:00:09;;;;;;;13.73;9.00;;;;;;;7.83;67.54;93715.28;5010859;28;20312;-61
2022/01/10 07:02:45;;;;;;;13.90;9.17;;;;;;;7.83;67.67;93712.69;5026839;28;20283;-61
2022/01/10 07:05:12;;;;;;;14.20;8.55;;;;;;;7.87;67.50;93721.53;5027455;28;20441;-61
2022/01/10 07:07:40;;;;;;;14.73;9.35;;;;;;;7.93;66.97;93723.88;5026742;28;20688;-60
2022/01/10 07:10:21;;;;;;;18.65;9.70;;;;;;;8.01;66.82;93715.50;5027107;28;20706;-61
2022/01/10 07:12:50;;;;;;;16.25;9.70;;;;;;;8.09;66.80;93717.56;5027001;28;20205;-60
2022/01/10 07:15:17;;;;;;;13.70;9.77;;;;;;;7.78;67.50;93716.13;5026929;28;20292;-62
2022/01/10 07:17:44;;;;;;;16.35;9.50;;;;;;;7.64;66.63;93724.75;5026463;28;20214;-60
2022/01/10 07:20:13;;;;;;;14.50;8.82;;;;;;;8.02;66.52;93722.28;5026749;28;20268;-62
2022/01/10 07:22:43;;;;;;;11.88;8.63;;;;;;;7.95;66.37;93716.56;5026293;28;20676;-61
2022/01/10 07:25:10;;;;;;;13.90;9.33;;;;;;;8.31;65.89;93732.88;5026999;28;20209;-60
2022/01/10 07:27:37;;;;;;;15.45;9.52;;;;;;;8.28;65.79;93736.03;5011030;28;20456;-61
2022/01/10 07:30:05;;;;;;;16.25;8.98;;;;;;;8.37;65.21;93737.00;5011573;28;20209;-61
2022/01/10 07:32:32;;;;;;;15.70;9.98;;;;;;;7.98;66.71;93720.47;5011207;28;20193;-61
2022/01/10 07:34:59;;;;;;;16.65;9.48;;;;;;;8.13;66.11;93743.88;5011407;28;20589;-61
2022/01/10 07:37:26;;;;;;;13.70;10.10;;;;;;;8.15;66.18;93747.00;5011504;28;20193;-62
2022/01/10 07:39:53;;;;;;;18.98;11.30;;;;;;;8.08;66.47;93754.34;5010885;28;20476;-61
2022/01/10 07:42:20;;;;;;;17.08;11.68;;;;;;;8.04;66.83;93761.13;5011440;28;20251;-62
2022/01/10 07:45:02;;;;;;;18.25;12.50;;;;;;;8.32;66.49;93757.91;5026653;28;20288;-62
2022/01/10 07:47:29;;;;;;;21.08;13.52;;;;;;;7.63;68.14;93764.88;5011347;28;20213;-61
2022/01/10 07:49:56;;;;;;;24.20;14.73;;;;;;;7.49;68.12;93764.66;5010635;28;20648;-62
2022/01/10 07:52:25;;;;;;;22.17;13.83;;;;;;;7.56;68.50;93759.97;5010769;28;20536;-61
2022/01/10 07:54:53;;;;;;;22.02;13.80;;;;;;;7.94;68.02;93763.75;5010829;28;20444;-60
2022/01/10 07:57:20;;;;;;;24.70;13.90;;;;;;;7.62;68.73;93766.75;5011425;28;20194;-60
2022/01/10 07:59:47;;;;;;;22.30;13.82;;;;;;;7.57;68.87;93777.16;5010438;28;20228;-61
2022/01/10 08:02:15;;;;;;;21.90;13.93;;;;;;;7.69;68.83;93763.84;5010748;28;20684;-62
2022/01/10 08:04:42;;;;;;;20.00;13.70;;;;;;;8.02;67.81;93758.00;5010509;28;20535;-62
2022/01/10 08:07:09;;;;;;;18.83;13.30;;;;;;;8.27;67.51;93763.16;5010705;28;20425;-62
2022/01/10 08:09:37;;;;;;;18.33;13.40;;;;;;;7.84;67.97;93763.81;5010423;28;20197;-61
2022/01/10 08:12:04;;;;;;;20.38;13.63;;;;;;;7.64;68.64;93766.47;5010890;28;20433;-60
2022/01/10 08:14:31;;;;;;;21.80;13.38;;;;;;;7.96;68.23;93756.47;5010263;28;20241;-61
2022/01/10 08:16:59;;;;;;;19.67;12.87;;;;;;;7.87;68.45;93760.66;5010248;28;20193;-62
2022/01/10 08:19:28;;;;;;;22.70;13.03;;;;;;;7.95;68.36;93763.53;5009945;28;20616;-61
2022/01/10 08:21:55;;;;;;;24.83;15.87;;;;;;;7.58;68.72;93723.19;5010672;28;20433;-61
2022/01/10 08:24:24;;;;;;;31.80;17.97;;;;;;;8.05;67.86;93762.69;5010494;28;20449;-61
2022/01/10 08:26:52;;;;;;;27.90;17.35;;;;;;;8.14;67.59;93761.88;5010522;28;20441;-60
2022/01/10 08:29:19;;;;;;;29.73;17.57;;;;;;;7.92;67.27;93763.25;5010197;28;20194;-61
2022/01/10 08:31:47;;;;;;;25.40;15.80;;;;;;;7.88;68.17;93762.25;5011200;28;21006;-61
2022/01/10 08:34:14;;;;;;;23.90;15.13;;;;;;;7.84;67.78;93766.41;5010932;28;20451;-61
2022/01/10 08:36:41;;;;;;;23.63;15.40;;;;;;;7.92;67.81;93771.06;5010766;28;20456;-61
2022/01/10 08:39:09;;;;;;;23.40;15.77;;;;;;;8.08;67.49;93767.38;5009333;28;20476;-62
2022/01/10 08:41:36;;;;;;;24.90;15.80;;;;;;;7.75;68.45;93765.41;5010751;28;20539;-61
2022/01/10 08:44:06;;;;;;;20.40;13.90;;;;;;;7.46;69.14;93777.44;5009981;28;20451;-62
2022/01/10 08:46:34;;;;;;;16.30;11.95;;;;;;;7.56;68.90;93782.63;5010306;28;20197;-61
2022/01/10 08:49:02;;;;;;;17.60;12.30;;;;;;;7.72;68.19;93784.19;5009633;28;20194;-61
2022/01/10 08:51:29;;;;;;;18.63;11.10;;;;;;;7.22;68.85;93784.22;5010477;28;20194;-62
2022/01/10 08:53:57;;;;;;;18.00;10.45;;;;;;;6.88;69.12;93773.53;5008769;28;20433;-61
2022/01/10 08:56:23;;;;;;;16.37;9.67;;;;;;;7.28;67.45;93789.16;5010393;28;20202;-61
2022/01/10 08:58:51;;;;;;;15.77;10.37;;;;;;;7.31;67.63;93780.06;5009055;28;20986;-61
2022/01/10 09:01:19;;;;;;;14.60;9.97;;;;;;;7.02;68.06;93775.41;5010101;28;20449;-60
2022/01/10 09:03:46;;;;;;;12.30;8.27;;;;;;;6.46;69.05;93786.75;5009557;28;20433;-62
2022/01/10 09:06:13;;;;;;;16.30;8.33;;;;;;;6.85;68.44;93790.47;5010329;28;20472;-61
2022/01/10 09:08:42;;;;;;;22.02;9.13;;;;;;;7.03;68.26;93792.56;5009283;28;20437;-60
2022/01/10 09:11:10;;;;;;;14.63;8.45;;;;;;;6.83;67.73;93792.56;5009799;28;20658;-61
2022/01/10 09:13:36;;;;;;;14.05;8.50;;;;;;;6.62;68.77;93798.78;5009865;28;20215;-61
2022/01/10 09:16:04;;;;;;;12.25;7.90;;;;;;;6.39;70.04;93798.44;5009624;28;20709;-61
2022/01/10 09:18:32;;;;;;;15.93;9.32;;;;;;;6.63;69.28;93794.34;5009045;28;20236;-63
2022/01/10 09:21:00;;;;;;;15.00;8.82;;;;;;;7.32;66.64;93789.47;5024948;28;20583;-61
2022/01/10 09:23:27;;;;;;;13.07;9.13;;;;;;;7.43;67.36;93790.97;5009368;28;20186;-62
2022/01/10 09:25:54;;;;;;;15.77;9.07;;;;;;;7.59;66.99;93780.28;5009774;28;20680;-61
2022/01/10 09:28:21;;;;;;;13.48;8.65;;;;;;;7.69;66.59;93785.50;5009074;28;20194;-61
2022/01/10 09:30:48;;;;;;;19.92;9.88;;;;;;;7.92;66.25;93789.31;5009483;28;20205;-61
2022/01/10 09:33:15;;;;;;;14.30;10.13;;;;;;;7.90;65.56;93781.00;5009240;28;20194;-61
2022/01/10 09:35:43;;;;;;;15.32;9.70;;;;;;;8.36;65.01;93779.81;5009700;28;20866;-61
2022/01/10 09:38:11;;;;;;;13.55;9.20;;;;;;;8.11;65.02;93777.28;5008885;28;20201;-62
2022/01/10 09:40:40;;;;;;;17.70;11.50;;;;;;;8.33;64.09;93782.97;5009772;28;20230;-61
2022/01/10 09:43:18;;;;;;;15.38;9.55;;;;;;;7.58;65.92;93793.59;5009225;28;20955;-61
2022/01/10 09:45:46;;;;;;;18.88;10.32;;;;;;;7.37;66.06;93779.03;5009895;28;20194;-62
2022/01/10 09:48:13;;;;;;;14.07;9.63;;;;;;;7.88;65.58;93783.09;5008834;28;20209;-62
2022/01/10 09:50:40;;;;;;;14.77;9.65;;;;;;;8.24;63.91;93776.75;5008954;28;20448;-61
2022/01/10 09:53:09;;;;;;;14.80;10.18;;;;;;;8.08;64.56;93777.81;5008656;28;20190;-60
2022/01/10 09:55:36;;;;;;;17.38;10.07;;;;;;;8.13;63.86;93775.19;5009853;28;20570;-62
2022/01/10 09:58:03;;;;;;;17.33;10.02;;;;;;;8.11;63.83;93756.41;5008912;28;20190;-62
2022/01/10 10:00:31;;;;;;;14.75;10.13;;;;;;;8.27;63.26;93781.41;5009127;28;20364;-61
2022/01/10 10:02:58;;;;;;;23.30;11.80;;;;;;;8.45;62.76;93786.03;5009107;28;20206;-62
2022/01/10 10:05:26;;;;;;;17.95;11.27;;;;;;;8.26;63.34;93786.91;5011178;28;20283;-61
2022/01/10 10:07:53;;;;;;;18.17;11.18;;;;;;;7.89;64.07;93758.56;5012690;28;20205;-62
2022/01/10 10:10:21;;;;;;;17.13;10.60;;;;;;;8.00;64.19;93775.75;5012818;28;20204;-62
2022/01/10 10:12:50;;;;;;;18.83;11.48;;;;;;;8.20;64.22;93786.13;5012844;28;20644;-62
2022/01/10 10:15:22;;;;;;;21.30;11.73;;;;;;;8.14;63.88;93792.38;5012826;28;20623;-61
2022/01/10 10:17:49;;;;;;;19.38;12.27;;;;;;;8.05;65.12;93788.78;5012203;28;20259;-61
2022/01/10 10:20:21;;;;;;;24.15;12.68;;;;;;;7.78;64.76;93757.81;5012639;28;20217;-61
2022/01/10 10:23:14;;;;;;;17.52;11.77;;;;;;;7.94;64.79;93792.47;5012394;28;20198;-65
2022/01/10 10:25:49;;;;;;;21.73;11.70;;;;;;;7.85;64.78;93773.19;5012614;28;20256;-62
2022/01/10 10:28:16;;;;;;;21.23;12.48;;;;;;;7.92;65.23;93784.09;5012033;28;20396;-62
2022/01/10 10:30:43;;;;;;;17.07;11.73;;;;;;;7.98;64.91;93767.41;5012833;28;20214;-63
2022/01/10 10:33:10;;;;;;;20.20;12.00;;;;;;;7.93;65.91;93786.47;5012194;28;21039;-62
2022/01/10 10:35:37;;;;;;;18.20;11.63;;;;;;;7.86;66.03;93785.19;5012419;28;20282;-62
2022/01/10 10:38:05;;;;;;;21.25;12.70;;;;;;;7.92;65.50;93784.09;5012513;28;20975;-62
2022/01/10 10:40:39;;;;;;;20.17;12.73;;;;;;;8.13;65.29;93778.59;5012667;28;20233;-61
2022/01/10 10:43:08;;;;;;;23.83;13.53;;;;;;;8.03;65.19;93775.22;5012257;28;20452;-61
2022/01/10 10:45:37;;;;;;;21.30;13.30;;;;;;;8.25;65.42;93777.53;5012546;28;20436;-62
2022/01/10 10:48:06;;;;;;;24.25;13.00;;;;;;;8.30;64.77;93770.47;5011862;28;20210;-62
2022/01/10 10:50:41;;;;;;;21.77;13.67;;;;;;;7.93;65.91;93764.81;5012667;28;20217;-61
2022/01/10 10:53:10;;;;;;;24.17;13.55;;;;;;;7.92;66.09;93790.13;5012562;28;20456;-63
2022/01/10 10:55:39;;;;;;;20.00;12.63;;;;;;;7.54;67.08;93797.75;5012763;28;20190;-62
2022/01/10 10:58:10;;;;;;;15.35;10.32;;;;;;;7.95;65.88;93788.81;5011857;28;20532;-60
2022/01/10 11:00:37;;;;;;;14.98;9.20;;;;;;;7.76;65.84;93788.59;5013063;28;20312;-61
2022/01/10 11:03:05;;;;;;;13.20;8.52;;;;;;;8.03;65.79;93785.63;5012226;28;20198;-62
2022/01/10 11:05:33;;;;;;;12.63;8.60;;;;;;;7.48;66.58;93794.38;5013008;28;20260;-61
2022/01/10 11:08:00;;;;;;;14.15;8.80;;;;;;;7.69;66.25;93795.13;5011707;28;20198;-60
2022/01/10 11:10:28;;;;;;;15.55;9.50;;;;;;;7.89;68.59;93779.44;5012508;28;20597;-60
2022/01/10 11:12:58;;;;;;;15.32;9.73;;;;;;;8.05;66.46;93799.19;5012375;28;20201;-61
2022/01/10 11:15:26;;;;;;;22.65;11.13;;;;;;;8.18;65.76;93804.66;5012658;28;20655;-61
2022/01/10 11:17:58;;;;;;;14.98;9.93;;;;;;;8.29;65.29;93808.03;5011598;28;20264;-61
2022/01/10 11:20:39;;;;;;;14.15;9.10;;;;;;;8.72;64.59;93807.28;5012105;28;20283;-62
2022/01/10 11:23:27;;;;;;;15.50;10.68;;;;;;;8.26;65.15;93811.19;5011412;28;20583;-61
2022/01/10 11:25:57;;;;;;;17.77;10.73;;;;;;;8.26;65.30;93803.34;5012169;28;20209;-62
2022/01/10 11:28:26;;;;;;;17.92;10.73;;;;;;;8.03;65.96;93819.56;5011099;28;20205;-61
2022/01/10 11:30:56;;;;;;;17.13;11.13;;;;;;;8.30;65.33;93812.22;5012077;28;20665;-61
2022/01/10 11:33:32;;;;;;;18.67;11.73;;;;;;;8.37;64.89;93807.47;5011125;28;20186;-61
2022/01/10 11:36:03;;;;;;;17.75;10.27;;;;;;;8.55;64.28;93809.50;5012041;28;20260;-61
2022/01/10 11:38:53;;;;;;;18.02;11.48;;;;;;;8.85;64.07;93793.63;5011078;28;20673;-61
2022/01/10 11:41:29;;;;;;;18.85;12.90;;;;;;;8.35;64.70;93808.78;5010838;28;20727;-62
2022/01/10 11:44:08;;;;;;;20.58;12.85;;;;;;;8.46;65.07;93808.50;5010908;28;20185;-61
2022/01/10 11:46:41;;;;;;;23.05;14.43;;;;;;;8.72;64.30;93814.38;5011182;28;20201;-61
2022/01/10 11:49:15;;;;;;;26.48;15.70;;;;;;;8.62;63.78;93809.19;5010581;28;20202;-60
2022/01/10 11:51:49;;;;;;;26.58;16.08;;;;;;;8.34;64.88;93812.47;5011542;28;20206;-63
2022/01/10 11:54:26;;;;;;;26.25;16.55;;;;;;;8.32;65.08;93814.56;5010941;28;20202;-60
2022/01/10 11:56:58;;;;;;;23.43;14.97;;;;;;;8.07;65.68;93817.97;5011358;28;20186;-61
2022/01/10 11:59:45;;;;;;;22.38;14.85;;;;;;;8.15;64.41;93818.25;5011601;28;20455;-61
2022/01/10 12:02:19;;;;;;;24.17;15.48;;;;;;;8.22;64.48;93825.78;5012088;28;20288;-60
2022/01/10 12:04:47;;;;;;;25.60;15.68;;;;;;;7.72;66.01;93833.72;5010924;28;20624;-60
2022/01/10 12:07:17;;;;;;;25.35;14.90;;;;;;;8.27;65.29;93825.78;5011504;28;20205;-63
2022/01/10 12:09:47;;;;;;;24.63;14.68;;;;;;;7.96;65.93;93834.69;5010607;28;20217;-61
2022/01/10 12:12:17;;;;;;;24.02;14.75;;;;;;;7.70;66.47;93828.00;5010743;28;20212;-60
2022/01/10 12:14:47;;;;;;;20.40;13.30;;;;;;;7.72;66.14;93825.91;5010462;28;20725;-62
2022/01/10 12:17:15;;;;;;;21.75;13.32;;;;;;;7.82;66.64;93833.69;5010921;28;20217;-60
2022/01/10 12:19:42;;;;;;;23.40;13.95;;;;;;;7.98;65.64;93827.41;5010139;28;20229;-61
2022/01/10 12:22:09;;;;;;;23.92;14.77;;;;;;;8.37;64.98;93825.75;5010884;28;20194;-61
2022/01/10 12:24:38;;;;;;;25.30;14.18;;;;;;;8.13;65.74;93833.38;5010464;28;20196;-61
2022/01/10 12:27:07;;;;;;;26.63;14.75;;;;;;;8.22;66.01;93831.00;5010729;28;20198;-62
2022/01/10 12:29:35;;;;;;;31.30;18.38;;;;;;;8.34;64.73;93828.88;5009842;28;20212;-61
2022/01/10 12:32:04;;;;;;;33.60;19.23;;;;;;;8.49;64.42;93830.66;5010616;28;20588;-60
2022/01/10 12:34:32;;;;;;;33.08;19.88;;;;;;;8.28;66.04;93823.97;5010245;28;20459;-61
2022/01/10 12:36:59;;;;;;;36.15;20.67;;;;;;;8.22;64.97;93836.22;5010212;28;20196;-61
2022/01/10 12:39:27;;;;;;;34.45;19.98;;;;;;;8.30;65.01;93838.31;5009921;28;20193;-61
2022/01/10 12:41:58;;;;;;;38.35;22.55;;;;;;;8.03;65.93;93843.81;5010909;28;20206;-60
2022/01/10 12:44:27;;;;;;;31.15;19.08;;;;;;;7.93;66.16;93843.84;5010267;28;20587;-62
2022/01/10 12:46:54;;;;;;;27.67;15.27;;;;;;;8.28;64.99;93850.06;5010555;28;20198;-61
2022/01/10 12:49:22;;;;;;;23.10;14.27;;;;;;;8.47;64.55;93854.41;5009915;28;20210;-61
2022/01/10 12:51:54;;;;;;;26.37;14.53;;;;;;;8.71;63.51;93851.97;5010701;28;20249;-61
2022/01/10 12:54:26;;;;;;;24.93;14.47;;;;;;;8.57;63.80;93833.50;5009983;28;20449;-60
2022/01/10 12:56:54;;;;;;;26.60;15.30;;;;;;;8.06;63.82;93858.16;5009814;28;20508;-61
2022/01/10 12:59:26;;;;;;;26.30;15.38;;;;;;;8.51;64.07;93849.44;5009100;28;20447;-61
2022/01/10 13:01:57;;;;;;;28.90;15.82;;;;;;;8.08;65.43;93872.50;5009994;28;20727;-62
2022/01/10 13:04:27;;;;;;;18.05;11.50;;;;;;;8.38;63.93;93866.44;5009560;28;20198;-62
2022/01/10 13:06:55;;;;;;;16.25;10.27;;;;;;;9.04;61.62;93869.56;5010198;28;20696;-61
2022/01/10 13:09:43;;;;;;;17.15;10.30;;;;;;;9.02;61.58;93866.44;5009340;28;20197;-60
2022/01/10 13:12:29;;;;;;;17.65;11.13;;;;;;;8.69;62.95;93867.91;5010210;28;20194;-61
2022/01/10 13:15:09;;;;;;;14.80;9.73;;;;;;;8.57;62.54;93877.88;5009059;28;20260;-60
2022/01/10 13:17:38;;;;;;;16.33;10.35;;;;;;;8.79;62.65;93878.31;5009567;28;20281;-63
2022/01/10 13:20:08;;;;;;;18.10;10.50;;;;;;;8.66;63.16;93873.66;5009882;28;20221;-61
2022/01/10 13:22:37;;;;;;;15.43;10.07;;;;;;;9.01;62.30;93881.31;5009458;28;20657;-61
2022/01/10 13:25:13;;;;;;;16.15;10.10;;;;;;;9.00;61.87;93887.59;5009735;28;20275;-60
2022/01/10 13:27:42;;;;;;;19.02;11.70;;;;;;;8.73;62.75;93895.03;5009731;28;20662;-62
2022/01/10 13:30:25;;;;;;;16.85;10.23;;;;;;;9.03;61.66;93881.81;5009881;28;20664;-60
2022/01/10 13:32:55;;;;;;;15.95;9.73;;;;;;;9.16;61.06;93891.69;5009319;28;20244;-62
2022/01/10 13:35:24;;;;;;;17.75;10.75;;;;;;;9.07;61.77;93879.44;5009137;28;20217;-62
2022/01/10 13:38:10;;;;;;;19.23;11.27;;;;;;;8.79;62.27;93899.22;5009245;28;20202;-61